Mercury — 3FFC7 — position and weather

sailwx.info

Track history (hours):
 
Tides and Currents Weather Stations Pressure Air Temp Water Temp Dewpoint Dewpoint Depression Visibility Wind Speed Wind Dir Waves Ship Positions

Mercury

Operator: Royal Caribbean Cruises Ltd

Last reported at 2019-Nov-24 14:30 UTC. Time now 2019-Dec-15 10:12 UTC.
Position S 40°14' E 172°58'.
Warning: this ship's position is 20 days out of date.

Length 199 m; draft 7.1 m.

Type: Cargo ship. MMSI: 371862000.

Date/timePositionNaut miles runAvg speedWind from/ knotsBaromVisibWave heightAir tempDewpointWater temp
2019-Nov-24 14:30S 40°14' E 172°58'2713.4
2019-Nov-24 12:31S 40°19' E 173°32'713.4
2019-Nov-24 12:00S 40°20' E 173°41'3911.2
2019-Nov-24 08:30S 40°41' E 174°24'2713.5
2019-Nov-24 06:30S 41°08' E 174°31'1811.8
2019-Nov-24 05:00S 41°24' E 174°42'9 5.7
2019-Nov-24 03:28S 41°16' E 174°47'0 0.0
2019-Nov-24 02:58S 41°16' E 174°47'0 0.0
2019-Nov-24 00:58S 41°16' E 174°47'0 0.0
2019-Nov-23 23:59S 41°16' E 174°47'0 0.0
2019-Nov-23 23:29S 41°16' E 174°47'0 0.0
2019-Nov-23 21:59S 41°16' E 174°47'0 0.0
2019-Nov-23 17:29S 41°16' E 174°47'9 4.7
2019-Nov-23 15:30S 41°25' E 174°47'2710.6
2019-Nov-23 13:00S 41°51' E 174°36'612.6
2019-Nov-23 12:30S 41°56' E 174°33'3011.7
2019-Nov-23 09:54S 42°19' E 174°06'914.2
2019-Nov-23 09:14S 42°28' E 173°59'38 1.7
2019-Nov-22 11:00S 43°04' E 173°45'2613.2
2019-Nov-22 09:00S 42°47' E 174°13'1012.6
2019-Nov-22 08:15S 42°41' E 174°23'912.4
2019-Nov-22 07:30S 42°36' E 174°33'612.8
2019-Nov-22 07:00S 42°32' E 174°40'1312.8
2019-Nov-22 06:00S 42°24' E 174°54'3112.5
2019-Nov-22 03:30S 42°04' E 175°26'1312.7
2019-Nov-22 02:30S 41°56' E 175°39'27013.9
2019-Nov-21 07:05S 38°04' E 178°41'6611.1
2019-Nov-21 01:10S 37°10' E 177°53'1013.9
2019-Nov-21 00:26S 37°06' E 177°41'2214.1
2019-Nov-20 22:51S 36°58' E 177°15'1214.2
2019-Nov-20 21:59S 36°53' E 177°01'713.9
2019-Nov-20 21:29S 36°51' E 176°53'913.7
2019-Nov-20 20:51S 36°48' E 176°43'1613.6
2019-Nov-20 19:41S 36°42' E 176°24'1714.0
2019-Nov-20 18:30S 36°36' E 176°05'914.6
2019-Nov-20 17:54S 36°32' E 175°55'48 9.8
2019-Nov-20 13:00S 36°39' E 174°56'10 9.7
2019-Nov-20 12:00S 36°47' E 174°48'4 1.0
2019-Nov-20 08:18S 36°50' E 174°46'0 0.0
2019-Nov-20 04:27S 36°50' E 174°46'0 0.0
2019-Nov-20 03:27S 36°50' E 174°46'0 0.0
2019-Nov-20 02:27S 36°50' E 174°46'0 0.0
2019-Nov-19 23:30S 36°50' E 174°46'0 0.0
2019-Nov-19 22:27S 36°50' E 174°46'0 0.0
2019-Nov-19 20:57S 36°50' E 174°46'7 2.8
2019-Nov-19 18:29S 36°44' E 174°50'3 6.4
2019-Nov-19 18:00S 36°42' E 174°53'14 9.4
2019-Nov-19 16:30S 36°29' E 175°01'  
Track history (hours):
 
Tides and Currents Weather Stations Pressure Air Temp Water Temp Dewpoint Dewpoint Depression Visibility Wind Speed Wind Dir Waves Ship Positions

Mercury

Operator: Royal Caribbean Cruises Ltd

Last reported at 2019-Nov-24 14:30 UTC. Time now 2019-Dec-15 10:12 UTC.
Position S 40°14' E 172°58'.
Warning: this ship's position is 20 days out of date.

Length 199 m; draft 7.1 m.

Type: Cargo ship. MMSI: 371862000.

Date/timePositionNaut miles runAvg speedWind from/ knotsBaromVisibWave heightAir tempDewpointWater temp
2019-Nov-24 14:30S 40°14' E 172°58'2713.4
2019-Nov-24 12:31S 40°19' E 173°32'713.4
2019-Nov-24 12:00S 40°20' E 173°41'3911.2
2019-Nov-24 08:30S 40°41' E 174°24'2713.5
2019-Nov-24 06:30S 41°08' E 174°31'1811.8
2019-Nov-24 05:00S 41°24' E 174°42'9 5.7
2019-Nov-24 03:28S 41°16' E 174°47'0 0.0
2019-Nov-24 02:58S 41°16' E 174°47'0 0.0
2019-Nov-24 00:58S 41°16' E 174°47'0 0.0
2019-Nov-23 23:59S 41°16' E 174°47'0 0.0
2019-Nov-23 23:29S 41°16' E 174°47'0 0.0
2019-Nov-23 21:59S 41°16' E 174°47'0 0.0
2019-Nov-23 17:29S 41°16' E 174°47'9 4.7
2019-Nov-23 15:30S 41°25' E 174°47'2710.6
2019-Nov-23 13:00S 41°51' E 174°36'612.6
2019-Nov-23 12:30S 41°56' E 174°33'3011.7
2019-Nov-23 09:54S 42°19' E 174°06'914.2
2019-Nov-23 09:14S 42°28' E 173°59'38 1.7
2019-Nov-22 11:00S 43°04' E 173°45'2613.2
2019-Nov-22 09:00S 42°47' E 174°13'1012.6
2019-Nov-22 08:15S 42°41' E 174°23'912.4
2019-Nov-22 07:30S 42°36' E 174°33'612.8
2019-Nov-22 07:00S 42°32' E 174°40'1312.8
2019-Nov-22 06:00S 42°24' E 174°54'3112.5
2019-Nov-22 03:30S 42°04' E 175°26'1312.7
2019-Nov-22 02:30S 41°56' E 175°39'27013.9
2019-Nov-21 07:05S 38°04' E 178°41'6611.1
2019-Nov-21 01:10S 37°10' E 177°53'1013.9
2019-Nov-21 00:26S 37°06' E 177°41'2214.1
2019-Nov-20 22:51S 36°58' E 177°15'1214.2
2019-Nov-20 21:59S 36°53' E 177°01'713.9
2019-Nov-20 21:29S 36°51' E 176°53'913.7
2019-Nov-20 20:51S 36°48' E 176°43'1613.6
2019-Nov-20 19:41S 36°42' E 176°24'1714.0
2019-Nov-20 18:30S 36°36' E 176°05'914.6
2019-Nov-20 17:54S 36°32' E 175°55'48 9.8
2019-Nov-20 13:00S 36°39' E 174°56'10 9.7
2019-Nov-20 12:00S 36°47' E 174°48'4 1.0
2019-Nov-20 08:18S 36°50' E 174°46'0 0.0
2019-Nov-20 04:27S 36°50' E 174°46'0 0.0
2019-Nov-20 03:27S 36°50' E 174°46'0 0.0
2019-Nov-20 02:27S 36°50' E 174°46'0 0.0
2019-Nov-19 23:30S 36°50' E 174°46'0 0.0
2019-Nov-19 22:27S 36°50' E 174°46'0 0.0
2019-Nov-19 20:57S 36°50' E 174°46'7 2.8
2019-Nov-19 18:29S 36°44' E 174°50'3 6.4
2019-Nov-19 18:00S 36°42' E 174°53'14 9.4
2019-Nov-19 16:30S 36°29' E 175°01'  

Dump ship's entire track history